sensor_id;sensor_type;location;lat;lon;timestamp;temperature;humidity
4749;DHT22;2388;53.582;9.962;2023-04-25T00:01:29;8.60;99.90
4749;DHT22;2388;53.582;9.962;2023-04-25T00:03:55;8.60;99.90
4749;DHT22;2388;53.582;9.962;2023-04-25T00:06:21;8.60;99.90
4749;DHT22;2388;53.582;9.962;2023-04-25T00:08:46;8.70;99.90
4749;DHT22;2388;53.582;9.962;2023-04-25T00:11:12;8.80;99.90
4749;DHT22;2388;53.582;9.962;2023-04-25T00:13:37;8.90;99.90
4749;DHT22;2388;53.582;9.962;2023-04-25T00:16:03;8.80;99.90
4749;DHT22;2388;53.582;9.962;2023-04-25T00:18:29;8.60;99.90
4749;DHT22;2388;53.582;9.962;2023-04-25T00:20:55;8.90;99.90
4749;DHT22;2388;53.582;9.962;2023-04-25T00:23:21;8.80;99.90
4749;DHT22;2388;53.582;9.962;2023-04-25T00:25:49;8.90;99.90
4749;DHT22;2388;53.582;9.962;2023-04-25T00:28:14;8.90;99.90
4749;DHT22;2388;53.582;9.962;2023-04-25T00:30:42;8.90;99.90
4749;DHT22;2388;53.582;9.962;2023-04-25T00:33:09;8.80;99.90
4749;DHT22;2388;53.582;9.962;2023-04-25T00:35:35;8.90;99.90
4749;DHT22;2388;53.582;9.962;2023-04-25T00:38:00;8.90;99.90
4749;DHT22;2388;53.582;9.962;2023-04-25T00:40:27;8.80;99.90
4749;DHT22;2388;53.582;9.962;2023-04-25T00:42:53;8.80;99.90
4749;DHT22;2388;53.582;9.962;2023-04-25T00:45:19;8.90;99.90
4749;DHT22;2388;53.582;9.962;2023-04-25T00:47:45;8.90;99.90
4749;DHT22;2388;53.582;9.962;2023-04-25T00:50:12;8.90;99.90
4749;DHT22;2388;53.582;9.962;2023-04-25T00:52:42;8.80;99.90
4749;DHT22;2388;53.582;9.962;2023-04-25T00:55:10;8.80;99.90
4749;DHT22;2388;53.582;9.962;2023-04-25T00:57:36;8.70;99.90
4749;DHT22;2388;53.582;9.962;2023-04-25T01:00:02;8.70;99.90
4749;DHT22;2388;53.582;9.962;2023-04-25T01:02:28;8.70;99.90
4749;DHT22;2388;53.582;9.962;2023-04-25T01:04:54;8.80;99.90
4749;DHT22;2388;53.582;9.962;2023-04-25T01:07:19;8.80;99.90
4749;DHT22;2388;53.582;9.962;2023-04-25T01:09:46;8.80;99.90
4749;DHT22;2388;53.582;9.962;2023-04-25T01:12:11;8.80;99.90
4749;DHT22;2388;53.582;9.962;2023-04-25T01:14:37;8.90;99.90
4749;DHT22;2388;53.582;9.962;2023-04-25T01:17:03;8.80;99.90
4749;DHT22;2388;53.582;9.962;2023-04-25T01:19:28;8.80;99.90
4749;DHT22;2388;53.582;9.962;2023-04-25T01:21:55;8.80;99.90
4749;DHT22;2388;53.582;9.962;2023-04-25T01:24:20;8.80;99.90
4749;DHT22;2388;53.582;9.962;2023-04-25T01:26:46;8.80;99.90
4749;DHT22;2388;53.582;9.962;2023-04-25T01:29:19;8.80;99.90
4749;DHT22;2388;53.582;9.962;2023-04-25T01:31:45;8.80;99.90
4749;DHT22;2388;53.582;9.962;2023-04-25T01:34:11;8.70;99.90
4749;DHT22;2388;53.582;9.962;2023-04-25T01:36:37;8.80;99.90
4749;DHT22;2388;53.582;9.962;2023-04-25T01:39:02;8.70;99.90
4749;DHT22;2388;53.582;9.962;2023-04-25T01:41:28;8.70;99.90
4749;DHT22;2388;53.582;9.962;2023-04-25T01:43:54;8.70;99.90
4749;DHT22;2388;53.582;9.962;2023-04-25T01:46:20;8.60;99.90
4749;DHT22;2388;53.582;9.962;2023-04-25T01:48:46;8.70;99.90
4749;DHT22;2388;53.582;9.962;2023-04-25T01:51:12;8.70;99.90
4749;DHT22;2388;53.582;9.962;2023-04-25T01:53:38;8.60;99.90
4749;DHT22;2388;53.582;9.962;2023-04-25T01:56:04;8.60;99.90
4749;DHT22;2388;53.582;9.962;2023-04-25T01:58:30;8.70;99.90
4749;DHT22;2388;53.582;9.962;2023-04-25T02:00:55;8.60;99.90
4749;DHT22;2388;53.582;9.962;2023-04-25T02:03:21;8.60;99.90
4749;DHT22;2388;53.582;9.962;2023-04-25T02:05:46;8.70;99.90
4749;DHT22;2388;53.582;9.962;2023-04-25T02:08:12;8.50;99.90
4749;DHT22;2388;53.582;9.962;2023-04-25T02:10:38;8.50;99.90
4749;DHT22;2388;53.582;9.962;2023-04-25T02:13:04;8.40;99.90
4749;DHT22;2388;53.582;9.962;2023-04-25T02:15:31;8.40;99.90
4749;DHT22;2388;53.582;9.962;2023-04-25T02:17:56;8.40;99.90
4749;DHT22;2388;53.582;9.962;2023-04-25T02:20:24;8.40;99.90
4749;DHT22;2388;53.582;9.962;2023-04-25T02:22:50;8.40;99.90
4749;DHT22;2388;53.582;9.962;2023-04-25T02:25:17;8.50;99.90
4749;DHT22;2388;53.582;9.962;2023-04-25T02:27:43;8.50;99.90
4749;DHT22;2388;53.582;9.962;2023-04-25T02:30:08;8.40;99.90
4749;DHT22;2388;53.582;9.962;2023-04-25T02:32:34;8.30;99.90
4749;DHT22;2388;53.582;9.962;2023-04-25T02:35:01;8.40;99.90
4749;DHT22;2388;53.582;9.962;2023-04-25T02:37:30;8.40;99.90
4749;DHT22;2388;53.582;9.962;2023-04-25T02:39:55;8.40;99.90
4749;DHT22;2388;53.582;9.962;2023-04-25T02:42:21;8.30;99.90
4749;DHT22;2388;53.582;9.962;2023-04-25T02:44:46;8.40;99.90
4749;DHT22;2388;53.582;9.962;2023-04-25T02:47:12;8.40;99.90
4749;DHT22;2388;53.582;9.962;2023-04-25T02:49:37;8.40;99.90
4749;DHT22;2388;53.582;9.962;2023-04-25T02:52:03;8.40;99.90
4749;DHT22;2388;53.582;9.962;2023-04-25T02:54:28;8.30;99.90
4749;DHT22;2388;53.582;9.962;2023-04-25T02:56:54;8.40;99.90
4749;DHT22;2388;53.582;9.962;2023-04-25T02:59:19;8.30;99.90
4749;DHT22;2388;53.582;9.962;2023-04-25T03:01:45;8.30;99.90
4749;DHT22;2388;53.582;9.962;2023-04-25T03:04:10;8.30;99.90
4749;DHT22;2388;53.582;9.962;2023-04-25T03:06:36;8.20;99.90
4749;DHT22;2388;53.582;9.962;2023-04-25T03:09:02;8.20;99.90
4749;DHT22;2388;53.582;9.962;2023-04-25T03:11:27;8.20;99.90
4749;DHT22;2388;53.582;9.962;2023-04-25T03:13:52;8.30;99.90
4749;DHT22;2388;53.582;9.962;2023-04-25T03:16:18;8.30;99.90
4749;DHT22;2388;53.582;9.962;2023-04-25T03:18:43;8.20;99.90
4749;DHT22;2388;53.582;9.962;2023-04-25T03:21:09;8.10;99.90
4749;DHT22;2388;53.582;9.962;2023-04-25T03:23:34;8.10;99.90
4749;DHT22;2388;53.582;9.962;2023-04-25T03:26:00;8.00;99.90
4749;DHT22;2388;53.582;9.962;2023-04-25T03:28:25;8.00;99.90
4749;DHT22;2388;53.582;9.962;2023-04-25T03:30:51;7.90;99.90
4749;DHT22;2388;53.582;9.962;2023-04-25T03:33:16;8.00;99.90
4749;DHT22;2388;53.582;9.962;2023-04-25T03:35:42;8.00;99.90
4749;DHT22;2388;53.582;9.962;2023-04-25T03:38:08;7.90;99.90
4749;DHT22;2388;53.582;9.962;2023-04-25T03:40:33;7.90;99.90
4749;DHT22;2388;53.582;9.962;2023-04-25T03:42:59;8.00;99.90
4749;DHT22;2388;53.582;9.962;2023-04-25T03:45:25;7.90;99.90
4749;DHT22;2388;53.582;9.962;2023-04-25T03:47:50;7.90;99.90
4749;DHT22;2388;53.582;9.962;2023-04-25T03:50:16;7.90;99.90
4749;DHT22;2388;53.582;9.962;2023-04-25T03:52:42;7.90;99.90
4749;DHT22;2388;53.582;9.962;2023-04-25T03:55:08;7.90;99.90
4749;DHT22;2388;53.582;9.962;2023-04-25T03:57:34;7.90;99.90
4749;DHT22;2388;53.582;9.962;2023-04-25T03:59:59;7.80;99.90
4749;DHT22;2388;53.582;9.962;2023-04-25T04:02:25;7.80;99.90
4749;DHT22;2388;53.582;9.962;2023-04-25T04:04:51;7.80;99.90
4749;DHT22;2388;53.582;9.962;2023-04-25T04:07:16;7.70;99.90
4749;DHT22;2388;53.582;9.962;2023-04-25T04:09:42;7.70;99.90
4749;DHT22;2388;53.582;9.962;2023-04-25T04:12:07;7.60;99.90
4749;DHT22;2388;53.582;9.962;2023-04-25T04:14:33;7.60;99.90
4749;DHT22;2388;53.582;9.962;2023-04-25T04:16:58;7.70;99.90
4749;DHT22;2388;53.582;9.962;2023-04-25T04:19:24;7.60;99.90
4749;DHT22;2388;53.582;9.962;2023-04-25T04:21:49;7.60;99.90
4749;DHT22;2388;53.582;9.962;2023-04-25T04:24:15;7.60;99.90
4749;DHT22;2388;53.582;9.962;2023-04-25T04:26:42;7.60;99.90
4749;DHT22;2388;53.582;9.962;2023-04-25T04:29:10;7.60;99.90
4749;DHT22;2388;53.582;9.962;2023-04-25T04:31:36;7.50;99.90
4749;DHT22;2388;53.582;9.962;2023-04-25T04:34:02;7.40;99.90
4749;DHT22;2388;53.582;9.962;2023-04-25T04:36:29;7.50;99.90
4749;DHT22;2388;53.582;9.962;2023-04-25T04:38:54;7.50;99.90
4749;DHT22;2388;53.582;9.962;2023-04-25T04:41:21;7.40;99.90
4749;DHT22;2388;53.582;9.962;2023-04-25T04:43:47;7.40;99.90
4749;DHT22;2388;53.582;9.962;2023-04-25T04:46:13;7.40;99.90
4749;DHT22;2388;53.582;9.962;2023-04-25T04:48:38;7.50;99.90
4749;DHT22;2388;53.582;9.962;2023-04-25T04:51:06;7.60;99.90
4749;DHT22;2388;53.582;9.962;2023-04-25T04:53:32;7.50;99.90
4749;DHT22;2388;53.582;9.962;2023-04-25T04:55:57;7.60;99.90
4749;DHT22;2388;53.582;9.962;2023-04-25T04:58:23;7.60;99.90
4749;DHT22;2388;53.582;9.962;2023-04-25T05:00:49;7.50;99.90
4749;DHT22;2388;53.582;9.962;2023-04-25T05:03:14;7.50;99.90
4749;DHT22;2388;53.582;9.962;2023-04-25T05:05:40;7.40;99.90
4749;DHT22;2388;53.582;9.962;2023-04-25T05:08:06;7.50;99.90
4749;DHT22;2388;53.582;9.962;2023-04-25T05:10:32;7.60;99.90
4749;DHT22;2388;53.582;9.962;2023-04-25T05:12:57;7.50;99.90
4749;DHT22;2388;53.582;9.962;2023-04-25T05:15:23;7.40;99.90
4749;DHT22;2388;53.582;9.962;2023-04-25T05:17:48;7.40;99.90
4749;DHT22;2388;53.582;9.962;2023-04-25T05:20:14;7.50;99.90
4749;DHT22;2388;53.582;9.962;2023-04-25T05:22:39;7.40;99.90
4749;DHT22;2388;53.582;9.962;2023-04-25T05:25:07;7.50;99.90
4749;DHT22;2388;53.582;9.962;2023-04-25T05:27:33;7.50;99.90
4749;DHT22;2388;53.582;9.962;2023-04-25T05:29:59;7.50;99.90
4749;DHT22;2388;53.582;9.962;2023-04-25T05:32:24;7.60;99.90
4749;DHT22;2388;53.582;9.962;2023-04-25T05:34:50;7.60;99.90
4749;DHT22;2388;53.582;9.962;2023-04-25T05:37:16;7.50;99.90
4749;DHT22;2388;53.582;9.962;2023-04-25T05:39:42;7.50;99.90
4749;DHT22;2388;53.582;9.962;2023-04-25T05:42:08;7.60;99.90
4749;DHT22;2388;53.582;9.962;2023-04-25T05:44:33;7.50;99.90
4749;DHT22;2388;53.582;9.962;2023-04-25T05:46:58;7.40;99.90
4749;DHT22;2388;53.582;9.962;2023-04-25T05:49:24;7.50;99.90
4749;DHT22;2388;53.582;9.962;2023-04-25T05:51:50;7.50;99.90
4749;DHT22;2388;53.582;9.962;2023-04-25T05:54:15;7.60;99.90
4749;DHT22;2388;53.582;9.962;2023-04-25T05:56:41;7.60;99.90
4749;DHT22;2388;53.582;9.962;2023-04-25T05:59:06;7.60;99.90
4749;DHT22;2388;53.582;9.962;2023-04-25T06:01:32;7.70;99.90
4749;DHT22;2388;53.582;9.962;2023-04-25T06:03:57;7.70;99.90
4749;DHT22;2388;53.582;9.962;2023-04-25T06:06:23;7.60;99.90
4749;DHT22;2388;53.582;9.962;2023-04-25T06:08:48;7.50;99.90
4749;DHT22;2388;53.582;9.962;2023-04-25T06:11:14;7.60;99.90
4749;DHT22;2388;53.582;9.962;2023-04-25T06:13:39;7.60;99.90
4749;DHT22;2388;53.582;9.962;2023-04-25T06:16:05;7.70;99.90
4749;DHT22;2388;53.582;9.962;2023-04-25T06:18:31;7.80;99.90
4749;DHT22;2388;53.582;9.962;2023-04-25T06:20:56;7.70;99.90
4749;DHT22;2388;53.582;9.962;2023-04-25T06:23:22;7.70;99.90
4749;DHT22;2388;53.582;9.962;2023-04-25T06:25:47;7.70;99.90
4749;DHT22;2388;53.582;9.962;2023-04-25T06:28:13;7.80;99.90
4749;DHT22;2388;53.582;9.962;2023-04-25T06:30:38;7.80;99.90
4749;DHT22;2388;53.582;9.962;2023-04-25T06:33:04;7.90;99.90
4749;DHT22;2388;53.582;9.962;2023-04-25T06:35:29;7.90;99.90
4749;DHT22;2388;53.582;9.962;2023-04-25T06:37:55;7.80;99.90
4749;DHT22;2388;53.582;9.962;2023-04-25T06:40:20;7.60;99.90
4749;DHT22;2388;53.582;9.962;2023-04-25T06:42:45;7.50;99.90
4749;DHT22;2388;53.582;9.962;2023-04-25T06:45:11;7.50;99.90
4749;DHT22;2388;53.582;9.962;2023-04-25T06:47:36;7.50;99.90
4749;DHT22;2388;53.582;9.962;2023-04-25T06:50:02;7.50;99.90
4749;DHT22;2388;53.582;9.962;2023-04-25T06:52:28;7.60;99.90
4749;DHT22;2388;53.582;9.962;2023-04-25T06:54:53;7.60;99.90
4749;DHT22;2388;53.582;9.962;2023-04-25T06:57:19;7.70;99.90
4749;DHT22;2388;53.582;9.962;2023-04-25T06:59:44;7.70;99.90
4749;DHT22;2388;53.582;9.962;2023-04-25T07:02:10;7.80;99.90
4749;DHT22;2388;53.582;9.962;2023-04-25T07:04:35;7.90;99.90
4749;DHT22;2388;53.582;9.962;2023-04-25T07:07:01;7.90;99.90
4749;DHT22;2388;53.582;9.962;2023-04-25T07:09:28;7.80;99.90
4749;DHT22;2388;53.582;9.962;2023-04-25T07:11:54;7.90;99.90
4749;DHT22;2388;53.582;9.962;2023-04-25T07:14:19;8.00;99.90
4749;DHT22;2388;53.582;9.962;2023-04-25T07:16:45;8.00;99.90
4749;DHT22;2388;53.582;9.962;2023-04-25T07:19:10;8.00;99.90
4749;DHT22;2388;53.582;9.962;2023-04-25T07:21:36;8.10;99.90
4749;DHT22;2388;53.582;9.962;2023-04-25T07:24:02;8.20;99.90
4749;DHT22;2388;53.582;9.962;2023-04-25T07:26:27;8.10;99.90
4749;DHT22;2388;53.582;9.962;2023-04-25T07:28:53;8.10;99.90
4749;DHT22;2388;53.582;9.962;2023-04-25T07:31:20;8.00;99.90
4749;DHT22;2388;53.582;9.962;2023-04-25T07:33:45;8.00;99.90
4749;DHT22;2388;53.582;9.962;2023-04-25T07:36:11;8.10;99.90
4749;DHT22;2388;53.582;9.962;2023-04-25T07:38:38;8.20;99.90
4749;DHT22;2388;53.582;9.962;2023-04-25T07:41:03;8.30;99.90
4749;DHT22;2388;53.582;9.962;2023-04-25T07:43:29;8.50;99.90
4749;DHT22;2388;53.582;9.962;2023-04-25T07:45:55;8.70;99.90
4749;DHT22;2388;53.582;9.962;2023-04-25T07:48:21;8.60;99.90
4749;DHT22;2388;53.582;9.962;2023-04-25T07:50:46;8.70;99.90
4749;DHT22;2388;53.582;9.962;2023-04-25T07:53:12;8.70;99.90
4749;DHT22;2388;53.582;9.962;2023-04-25T07:55:38;8.70;99.90
4749;DHT22;2388;53.582;9.962;2023-04-25T07:58:06;8.80;99.90
4749;DHT22;2388;53.582;9.962;2023-04-25T08:00:31;8.80;99.90
4749;DHT22;2388;53.582;9.962;2023-04-25T08:02:57;8.80;99.90
4749;DHT22;2388;53.582;9.962;2023-04-25T08:05:22;8.90;99.90
4749;DHT22;2388;53.582;9.962;2023-04-25T08:07:48;9.00;99.90
4749;DHT22;2388;53.582;9.962;2023-04-25T08:10:13;9.00;99.90
4749;DHT22;2388;53.582;9.962;2023-04-25T08:12:39;9.00;99.90
4749;DHT22;2388;53.582;9.962;2023-04-25T08:15:05;9.00;99.90
4749;DHT22;2388;53.582;9.962;2023-04-25T08:17:31;9.00;99.90
4749;DHT22;2388;53.582;9.962;2023-04-25T08:19:57;9.00;99.90
4749;DHT22;2388;53.582;9.962;2023-04-25T08:22:22;9.00;99.90
4749;DHT22;2388;53.582;9.962;2023-04-25T08:24:48;8.90;99.90
4749;DHT22;2388;53.582;9.962;2023-04-25T08:27:13;8.90;99.90
4749;DHT22;2388;53.582;9.962;2023-04-25T08:29:39;9.00;99.90
4749;DHT22;2388;53.582;9.962;2023-04-25T08:32:04;9.00;99.90
4749;DHT22;2388;53.582;9.962;2023-04-25T08:34:30;9.00;99.90
4749;DHT22;2388;53.582;9.962;2023-04-25T08:36:55;9.10;99.90
4749;DHT22;2388;53.582;9.962;2023-04-25T08:39:21;9.20;99.90
4749;DHT22;2388;53.582;9.962;2023-04-25T08:41:46;9.20;99.90
4749;DHT22;2388;53.582;9.962;2023-04-25T08:44:13;9.10;99.90
4749;DHT22;2388;53.582;9.962;2023-04-25T08:46:40;9.00;99.90
4749;DHT22;2388;53.582;9.962;2023-04-25T08:49:06;9.00;99.90
4749;DHT22;2388;53.582;9.962;2023-04-25T08:51:32;9.00;99.90
4749;DHT22;2388;53.582;9.962;2023-04-25T08:54:09;9.00;99.90
4749;DHT22;2388;53.582;9.962;2023-04-25T08:56:36;9.00;99.90
4749;DHT22;2388;53.582;9.962;2023-04-25T08:59:03;9.10;99.90
4749;DHT22;2388;53.582;9.962;2023-04-25T09:01:29;9.00;99.90
4749;DHT22;2388;53.582;9.962;2023-04-25T09:03:54;9.00;99.90
4749;DHT22;2388;53.582;9.962;2023-04-25T09:06:20;9.00;99.90
4749;DHT22;2388;53.582;9.962;2023-04-25T09:08:46;9.10;99.90
4749;DHT22;2388;53.582;9.962;2023-04-25T09:11:12;8.90;99.90
4749;DHT22;2388;53.582;9.962;2023-04-25T09:13:39;8.90;99.90
4749;DHT22;2388;53.582;9.962;2023-04-25T09:16:04;8.80;99.90
4749;DHT22;2388;53.582;9.962;2023-04-25T09:18:32;8.70;99.90
4749;DHT22;2388;53.582;9.962;2023-04-25T09:21:11;8.80;99.90
4749;DHT22;2388;53.582;9.962;2023-04-25T09:23:49;8.80;99.90
4749;DHT22;2388;53.582;9.962;2023-04-25T09:26:18;8.80;99.90
4749;DHT22;2388;53.582;9.962;2023-04-25T09:28:44;8.90;99.90
4749;DHT22;2388;53.582;9.962;2023-04-25T09:31:11;8.90;99.90
4749;DHT22;2388;53.582;9.962;2023-04-25T09:33:40;9.00;99.90
4749;DHT22;2388;53.582;9.962;2023-04-25T09:36:08;9.00;99.90
4749;DHT22;2388;53.582;9.962;2023-04-25T09:38:41;9.10;99.90
4749;DHT22;2388;53.582;9.962;2023-04-25T09:41:08;9.10;99.90
4749;DHT22;2388;53.582;9.962;2023-04-25T09:43:33;9.00;99.90
4749;DHT22;2388;53.582;9.962;2023-04-25T09:46:00;8.60;99.90
4749;DHT22;2388;53.582;9.962;2023-04-25T09:48:27;8.50;99.90
4749;DHT22;2388;53.582;9.962;2023-04-25T09:51:11;8.50;99.90
4749;DHT22;2388;53.582;9.962;2023-04-25T09:53:45;8.50;99.90
4749;DHT22;2388;53.582;9.962;2023-04-25T09:56:16;8.60;99.90
4749;DHT22;2388;53.582;9.962;2023-04-25T09:58:43;8.60;99.90
4749;DHT22;2388;53.582;9.962;2023-04-25T10:01:10;8.70;99.90
4749;DHT22;2388;53.582;9.962;2023-04-25T10:03:38;8.80;99.90
4749;DHT22;2388;53.582;9.962;2023-04-25T10:06:11;8.80;99.90
4749;DHT22;2388;53.582;9.962;2023-04-25T10:08:38;8.70;99.90
4749;DHT22;2388;53.582;9.962;2023-04-25T10:11:05;8.70;99.90
4749;DHT22;2388;53.582;9.962;2023-04-25T10:13:32;8.90;99.90
4749;DHT22;2388;53.582;9.962;2023-04-25T10:16:00;9.00;99.90
4749;DHT22;2388;53.582;9.962;2023-04-25T10:18:27;9.20;99.90
4749;DHT22;2388;53.582;9.962;2023-04-25T10:20:58;9.40;99.90
4749;DHT22;2388;53.582;9.962;2023-04-25T10:23:24;9.40;99.90
4749;DHT22;2388;53.582;9.962;2023-04-25T10:25:51;9.50;99.90
4749;DHT22;2388;53.582;9.962;2023-04-25T10:28:18;9.40;99.90
4749;DHT22;2388;53.582;9.962;2023-04-25T10:31:00;9.40;99.90
4749;DHT22;2388;53.582;9.962;2023-04-25T10:33:35;9.30;99.90
4749;DHT22;2388;53.582;9.962;2023-04-25T10:36:12;9.40;99.90
4749;DHT22;2388;53.582;9.962;2023-04-25T10:38:38;9.50;99.90
4749;DHT22;2388;53.582;9.962;2023-04-25T10:41:08;9.60;99.90
4749;DHT22;2388;53.582;9.962;2023-04-25T10:43:44;9.60;99.90
4749;DHT22;2388;53.582;9.962;2023-04-25T10:46:26;9.60;99.90
4749;DHT22;2388;53.582;9.962;2023-04-25T10:49:00;9.60;99.90
4749;DHT22;2388;53.582;9.962;2023-04-25T10:51:32;9.70;99.90
4749;DHT22;2388;53.582;9.962;2023-04-25T11:01:41;9.80;99.90
4749;DHT22;2388;53.582;9.962;2023-04-25T11:07:02;9.70;99.90
4749;DHT22;2388;53.582;9.962;2023-04-25T11:09:33;9.70;99.90
4749;DHT22;2388;53.582;9.962;2023-04-25T11:11:59;9.70;99.90
4749;DHT22;2388;53.582;9.962;2023-04-25T11:14:25;9.70;99.90
4749;DHT22;2388;53.582;9.962;2023-04-25T11:16:54;9.80;99.90
4749;DHT22;2388;53.582;9.962;2023-04-25T11:19:24;9.80;99.90
4749;DHT22;2388;53.582;9.962;2023-04-25T11:21:50;9.90;99.90
4749;DHT22;2388;53.582;9.962;2023-04-25T11:24:17;9.90;99.90
4749;DHT22;2388;53.582;9.962;2023-04-25T11:26:43;9.90;99.90
4749;DHT22;2388;53.582;9.962;2023-04-25T11:29:09;10.00;99.90
4749;DHT22;2388;53.582;9.962;2023-04-25T11:31:35;10.10;99.90
4749;DHT22;2388;53.582;9.962;2023-04-25T11:34:00;10.20;99.90
4749;DHT22;2388;53.582;9.962;2023-04-25T11:36:26;10.10;99.90
4749;DHT22;2388;53.582;9.962;2023-04-25T11:38:53;9.70;99.90
4749;DHT22;2388;53.582;9.962;2023-04-25T11:41:22;9.60;99.90
4749;DHT22;2388;53.582;9.962;2023-04-25T11:43:48;9.50;99.90
4749;DHT22;2388;53.582;9.962;2023-04-25T11:46:14;9.40;99.90
4749;DHT22;2388;53.582;9.962;2023-04-25T11:48:41;9.50;99.90
4749;DHT22;2388;53.582;9.962;2023-04-25T11:51:06;9.70;99.90
4749;DHT22;2388;53.582;9.962;2023-04-25T11:53:32;9.90;99.90
4749;DHT22;2388;53.582;9.962;2023-04-25T11:55:58;10.20;99.90
4749;DHT22;2388;53.582;9.962;2023-04-25T11:58:23;10.40;99.90
4749;DHT22;2388;53.582;9.962;2023-04-25T12:00:49;10.50;99.90
4749;DHT22;2388;53.582;9.962;2023-04-25T12:03:14;10.50;99.90
4749;DHT22;2388;53.582;9.962;2023-04-25T12:05:40;10.60;99.90
4749;DHT22;2388;53.582;9.962;2023-04-25T12:10:38;10.90;99.90
4749;DHT22;2388;53.582;9.962;2023-04-25T12:13:24;10.80;99.90
4749;DHT22;2388;53.582;9.962;2023-04-25T12:15:51;10.90;99.90
4749;DHT22;2388;53.582;9.962;2023-04-25T12:18:24;11.10;99.90
4749;DHT22;2388;53.582;9.962;2023-04-25T12:20:52;11.10;99.90
4749;DHT22;2388;53.582;9.962;2023-04-25T12:23:25;11.20;99.90
4749;DHT22;2388;53.582;9.962;2023-04-25T12:25:51;11.50;99.90
4749;DHT22;2388;53.582;9.962;2023-04-25T12:33:20;12.60;99.90
4749;DHT22;2388;53.582;9.962;2023-04-25T12:35:46;12.80;99.90
4749;DHT22;2388;53.582;9.962;2023-04-25T12:38:30;13.10;99.90
4749;DHT22;2388;53.582;9.962;2023-04-25T12:40:57;12.90;99.90
4749;DHT22;2388;53.582;9.962;2023-04-25T12:43:23;12.80;99.90
4749;DHT22;2388;53.582;9.962;2023-04-25T12:45:50;12.60;99.90
4749;DHT22;2388;53.582;9.962;2023-04-25T12:48:16;12.70;99.90
4749;DHT22;2388;53.582;9.962;2023-04-25T12:50:42;12.70;99.90
4749;DHT22;2388;53.582;9.962;2023-04-25T12:53:08;12.40;99.90
4749;DHT22;2388;53.582;9.962;2023-04-25T12:55:33;12.10;99.90
4749;DHT22;2388;53.582;9.962;2023-04-25T12:57:59;11.90;99.90
4749;DHT22;2388;53.582;9.962;2023-04-25T13:00:24;11.90;99.90
4749;DHT22;2388;53.582;9.962;2023-04-25T13:02:50;12.20;99.90
4749;DHT22;2388;53.582;9.962;2023-04-25T13:05:16;12.50;99.90
4749;DHT22;2388;53.582;9.962;2023-04-25T13:07:41;12.90;99.90
4749;DHT22;2388;53.582;9.962;2023-04-25T13:10:07;13.10;99.90
4749;DHT22;2388;53.582;9.962;2023-04-25T13:12:33;12.90;99.90
4749;DHT22;2388;53.582;9.962;2023-04-25T13:14:58;12.60;99.90
4749;DHT22;2388;53.582;9.962;2023-04-25T13:17:24;12.40;99.90
4749;DHT22;2388;53.582;9.962;2023-04-25T13:19:49;11.70;99.90
4749;DHT22;2388;53.582;9.962;2023-04-25T13:22:15;11.20;99.90
4749;DHT22;2388;53.582;9.962;2023-04-25T13:24:42;11.00;99.90
4749;DHT22;2388;53.582;9.962;2023-04-25T13:27:08;10.50;99.90
4749;DHT22;2388;53.582;9.962;2023-04-25T13:29:33;10.10;99.90
4749;DHT22;2388;53.582;9.962;2023-04-25T13:32:01;10.10;99.90
4749;DHT22;2388;53.582;9.962;2023-04-25T13:34:27;10.00;99.90
4749;DHT22;2388;53.582;9.962;2023-04-25T13:36:53;10.20;99.90
4749;DHT22;2388;53.582;9.962;2023-04-25T13:39:18;10.80;99.90
4749;DHT22;2388;53.582;9.962;2023-04-25T13:41:44;11.30;99.90
4749;DHT22;2388;53.582;9.962;2023-04-25T13:44:09;11.70;99.90
4749;DHT22;2388;53.582;9.962;2023-04-25T13:46:35;12.10;99.90
4749;DHT22;2388;53.582;9.962;2023-04-25T13:49:03;11.80;99.90
4749;DHT22;2388;53.582;9.962;2023-04-25T13:51:28;11.40;99.90
4749;DHT22;2388;53.582;9.962;2023-04-25T13:53:54;10.80;99.90
4749;DHT22;2388;53.582;9.962;2023-04-25T13:56:19;10.30;99.90
4749;DHT22;2388;53.582;9.962;2023-04-25T13:58:45;10.00;99.90
4749;DHT22;2388;53.582;9.962;2023-04-25T14:01:11;9.60;99.90
4749;DHT22;2388;53.582;9.962;2023-04-25T14:03:36;9.60;99.90
4749;DHT22;2388;53.582;9.962;2023-04-25T14:06:02;9.50;99.90
4749;DHT22;2388;53.582;9.962;2023-04-25T14:08:27;9.40;99.90
4749;DHT22;2388;53.582;9.962;2023-04-25T14:10:54;9.40;99.90
4749;DHT22;2388;53.582;9.962;2023-04-25T14:13:19;9.40;99.90
4749;DHT22;2388;53.582;9.962;2023-04-25T14:15:45;9.50;99.90
4749;DHT22;2388;53.582;9.962;2023-04-25T14:18:10;9.70;99.90
4749;DHT22;2388;53.582;9.962;2023-04-25T14:20:36;9.80;99.90
4749;DHT22;2388;53.582;9.962;2023-04-25T14:23:02;10.20;99.90
4749;DHT22;2388;53.582;9.962;2023-04-25T14:25:28;10.50;99.90
4749;DHT22;2388;53.582;9.962;2023-04-25T14:27:54;10.80;99.90
4749;DHT22;2388;53.582;9.962;2023-04-25T14:30:21;10.80;99.90
4749;DHT22;2388;53.582;9.962;2023-04-25T14:32:50;10.70;99.90
4749;DHT22;2388;53.582;9.962;2023-04-25T14:35:16;10.60;99.90
4749;DHT22;2388;53.582;9.962;2023-04-25T14:37:42;10.60;99.90
4749;DHT22;2388;53.582;9.962;2023-04-25T14:40:08;10.60;99.90
4749;DHT22;2388;53.582;9.962;2023-04-25T14:42:36;10.60;99.90
4749;DHT22;2388;53.582;9.962;2023-04-25T14:45:04;10.50;99.90
4749;DHT22;2388;53.582;9.962;2023-04-25T14:47:30;10.40;99.90
4749;DHT22;2388;53.582;9.962;2023-04-25T14:49:56;10.30;99.90
4749;DHT22;2388;53.582;9.962;2023-04-25T14:52:22;10.20;99.90
4749;DHT22;2388;53.582;9.962;2023-04-25T14:54:47;10.30;99.90
4749;DHT22;2388;53.582;9.962;2023-04-25T14:57:14;10.40;99.90
4749;DHT22;2388;53.582;9.962;2023-04-25T14:59:39;10.80;99.90
4749;DHT22;2388;53.582;9.962;2023-04-25T15:02:05;11.10;99.90
4749;DHT22;2388;53.582;9.962;2023-04-25T15:04:31;11.00;99.90
4749;DHT22;2388;53.582;9.962;2023-04-25T15:06:56;10.90;99.90
4749;DHT22;2388;53.582;9.962;2023-04-25T15:09:22;10.60;99.90
4749;DHT22;2388;53.582;9.962;2023-04-25T15:11:49;10.50;99.90
4749;DHT22;2388;53.582;9.962;2023-04-25T15:14:16;10.60;99.90
4749;DHT22;2388;53.582;9.962;2023-04-25T15:16:42;10.70;99.90
4749;DHT22;2388;53.582;9.962;2023-04-25T15:19:07;10.70;99.90
4749;DHT22;2388;53.582;9.962;2023-04-25T15:21:33;10.90;99.90
4749;DHT22;2388;53.582;9.962;2023-04-25T15:23:59;11.10;99.90
4749;DHT22;2388;53.582;9.962;2023-04-25T15:26:24;11.30;99.90
4749;DHT22;2388;53.582;9.962;2023-04-25T15:28:50;11.20;99.90
4749;DHT22;2388;53.582;9.962;2023-04-25T15:31:17;11.50;99.90
4749;DHT22;2388;53.582;9.962;2023-04-25T15:33:43;11.50;99.90
4749;DHT22;2388;53.582;9.962;2023-04-25T15:36:08;11.60;99.90
4749;DHT22;2388;53.582;9.962;2023-04-25T15:38:35;11.50;99.90
4749;DHT22;2388;53.582;9.962;2023-04-25T15:41:01;11.50;99.90
4749;DHT22;2388;53.582;9.962;2023-04-25T15:43:26;11.50;99.90
4749;DHT22;2388;53.582;9.962;2023-04-25T15:45:52;11.50;99.90
4749;DHT22;2388;53.582;9.962;2023-04-25T15:48:17;11.40;99.90
4749;DHT22;2388;53.582;9.962;2023-04-25T15:50:43;11.20;99.90
4749;DHT22;2388;53.582;9.962;2023-04-25T15:53:09;11.10;99.90
4749;DHT22;2388;53.582;9.962;2023-04-25T15:55:35;10.90;99.90
4749;DHT22;2388;53.582;9.962;2023-04-25T15:58:01;10.70;99.90
4749;DHT22;2388;53.582;9.962;2023-04-25T16:00:27;10.50;99.90
4749;DHT22;2388;53.582;9.962;2023-04-25T16:02:53;10.30;99.90
4749;DHT22;2388;53.582;9.962;2023-04-25T16:05:24;10.30;99.90
4749;DHT22;2388;53.582;9.962;2023-04-25T16:07:50;10.20;99.90
4749;DHT22;2388;53.582;9.962;2023-04-25T16:10:17;10.30;99.90
4749;DHT22;2388;53.582;9.962;2023-04-25T16:12:46;10.20;99.90
4749;DHT22;2388;53.582;9.962;2023-04-25T16:15:14;10.20;99.90
4749;DHT22;2388;53.582;9.962;2023-04-25T16:17:40;10.10;99.90
4749;DHT22;2388;53.582;9.962;2023-04-25T16:20:06;9.90;99.90
4749;DHT22;2388;53.582;9.962;2023-04-25T16:22:35;9.80;99.90
4749;DHT22;2388;53.582;9.962;2023-04-25T16:25:02;9.70;99.90
4749;DHT22;2388;53.582;9.962;2023-04-25T16:27:27;9.70;99.90